Volk Field
KVOK : now visible

Airfield :











YOU CAN JOIN US ON...

 
LOGIN :

Register | Disclaimer

   EN    FR    IT 

 









Legend :    VFR   Marginal VFR   IFR   Intensive IFR   Very Intensive IFR
Visi :
Ceiling :
>= 8 km
>= 3000ft
5 to 8 km
1000 to 3000 ft
1500m to 5 km
500 to 1000 ft
800 to 1500m
200 to 500 ft
< 800m
< 200 ft
Symbols :   Thunderstorms  Fog  Heavy snow  Heavy precipitations  Wind > 20 kt






- Airport Elevation : 912 ft


KVOK - Volk Field

CURRENT METAR :
  • 021456Z 00000KT 10SM CLR M05/M05 A3031 RMK AO2A SLP283 51010

EXPIRED METARs :
  • 021356Z 00000KT 10SM FEW250 M11/M11 A3031 RMK AO2A SLP286
  • 021256Z 28003KT 10SM FEW250 M12/M12 A3031 RMK AO2A SLP286

TAF TAF KVOK
Valid from the 02 at 09:00 until the 03 at 15:00 UTC


020900Z 0209/0315 28006KT 9999 SKC QNH3017INS
BECMG 0306/0307 29009KT 9999 FEW020 SCT200 QNH3011INS TX01/0221Z TNM11/0212Z
KZAU FIR / North America



MET'MAP, your aeronautical weather chart ! - Copyright ORBIFLY December 2007 - Disclaimer

ORBIFLY MET'MAP TEAM :

Programming & Development : Alexandra Zaïnal
Concept & original design : Baudouin d'Aumeries
Assistance for programming : Marc-Olivier Méhu
Technical & hardware support : Manuel Goepfert

Contact : metmap@orbifly.com




SOURCES & CREDITS :

   NOAA       Earth
Advisory